Time;durP1;ratioP1;P1;durP2;ratioP2;P2;SDS_P1;SDS_P2;PMS_P1;PMS_P2;Temp;Humidity;BMP_temperature;BMP_pressure;BME280_temperature;BME280_humidity;BME280_pressure;Samples;Min_cycle;Max_cycle;Signal;HPM_P1;HPM_P2
2022/01/30 00:02:09;;;;;;;32.92;4.60;;;;;;;;;;5060256;28;20052;-71
2022/01/30 00:04:35;;;;;;;18.95;3.15;;;;;;;;;;5051862;28;20084;-71
2022/01/30 00:07:01;;;;;;;28.10;3.45;;;;;;;;;;5064396;28;20421;-71
2022/01/30 00:09:28;;;;;;;24.30;3.42;;;;;;;;;;5062160;28;20055;-71
2022/01/30 00:11:58;;;;;;;30.65;3.90;;;;;;;;;;5056501;28;20064;-72
2022/01/30 00:14:25;;;;;;;29.48;4.30;;;;;;;;;;5065292;28;20071;-72
2022/01/30 00:16:59;;;;;;;32.85;4.18;;;;;;;;;;5050215;28;20127;-72
2022/01/30 00:19:36;;;;;;;32.20;4.43;;;;;;;;;;5059571;28;20095;-71
2022/01/30 00:22:17;;;;;;;25.50;4.40;;;;;;;;;;5053594;28;20071;-72
2022/01/30 00:24:51;;;;;;;28.27;4.88;;;;;;;;;;5064733;28;20576;-72
2022/01/30 00:27:26;;;;;;;26.33;4.47;;;;;;;;;;5041998;28;20468;-72
2022/01/30 00:29:53;;;;;;;26.95;3.38;;;;;;;;;;5058940;28;20061;-72
2022/01/30 00:32:19;;;;;;;27.80;3.75;;;;;;;;;;5051693;28;20510;-72
2022/01/30 00:35:08;;;;;;;36.45;6.32;;;;;;;;;;5064552;28;20056;-72
2022/01/30 00:37:40;;;;;;;27.75;4.20;;;;;;;;;;5058954;28;20049;-72
2022/01/30 00:40:26;;;;;;;37.28;5.30;;;;;;;;;;5060382;28;20045;-71
2022/01/30 00:42:52;;;;;;;30.60;4.15;;;;;;;;;;5059379;28;20470;-72
2022/01/30 00:45:19;;;;;;;32.65;4.50;;;;;;;;;;5047385;28;20076;-72
2022/01/30 00:47:46;;;;;;;27.25;3.42;;;;;;;;;;5066084;28;20079;-72
2022/01/30 00:50:12;;;;;;;18.63;3.22;;;;;;;;;;5067891;28;20523;-72
2022/01/30 00:52:38;;;;;;;26.77;3.58;;;;;;;;;;5076683;28;20067;-72
2022/01/30 00:55:05;;;;;;;26.98;5.25;;;;;;;;;;5062861;28;20052;-73
2022/01/30 00:57:31;;;;;;;37.28;5.35;;;;;;;;;;5084428;28;20499;-72
2022/01/30 00:59:57;;;;;;;22.98;3.85;;;;;;;;;;5077050;28;20253;-71
2022/01/30 01:02:24;;;;;;;23.92;4.65;;;;;;;;;;5074653;28;20442;-72
2022/01/30 01:04:50;;;;;;;26.20;4.00;;;;;;;;;;5065403;28;20059;-72
2022/01/30 01:07:22;;;;;;;34.08;4.32;;;;;;;;;;5054467;28;20055;-72
2022/01/30 01:10:00;;;;;;;31.10;3.67;;;;;;;;;;5060883;28;20048;-72
2022/01/30 01:13:19;;;;;;;30.70;4.07;;;;;;;;;;5032579;28;20052;-72
2022/01/30 01:20:59;;;;;;;26.65;3.28;;;;;;;;;;5063374;28;20139;-72
2022/01/30 01:25:54;;;;;;;22.80;3.75;;;;;;;;;;5061405;28;20045;-72
2022/01/30 01:28:20;;;;;;;21.92;2.95;;;;;;;;;;5063128;28;20048;-72
2022/01/30 01:30:47;;;;;;;17.98;2.67;;;;;;;;;;5054322;28;20498;-72
2022/01/30 01:33:14;;;;;;;21.65;2.88;;;;;;;;;;5062899;28;20040;-72
2022/01/30 01:35:40;;;;;;;24.90;3.30;;;;;;;;;;5052452;28;20044;-72
2022/01/30 01:38:12;;;;;;;26.52;3.67;;;;;;;;;;5056499;28;20459;-72
2022/01/30 01:40:39;;;;;;;19.38;3.10;;;;;;;;;;5036714;28;20052;-72
2022/01/30 01:43:06;;;;;;;24.52;3.10;;;;;;;;;;5062382;28;20051;-72
2022/01/30 01:45:37;;;;;;;23.10;3.00;;;;;;;;;;5054357;28;20084;-72
2022/01/30 01:48:09;;;;;;;16.95;2.38;;;;;;;;;;5062323;28;20048;-72
2022/01/30 01:50:39;;;;;;;18.95;3.08;;;;;;;;;;5061427;28;20052;-72
2022/01/30 01:53:06;;;;;;;19.83;3.08;;;;;;;;;;5070830;28;20044;-72
2022/01/30 01:55:33;;;;;;;18.10;2.47;;;;;;;;;;5067229;28;20128;-72
2022/01/30 01:57:59;;;;;;;24.33;2.80;;;;;;;;;;5054677;28;20048;-72
2022/01/30 02:00:26;;;;;;;28.25;4.00;;;;;;;;;;5057724;28;20053;-72
2022/01/30 02:02:54;;;;;;;18.85;3.40;;;;;;;;;;5049315;28;20051;-72
2022/01/30 02:05:23;;;;;;;23.25;3.67;;;;;;;;;;5062486;28;20055;-72
2022/01/30 02:10:23;;;;;;;24.85;3.30;;;;;;;;;;5051417;28;20369;-72
2022/01/30 02:12:53;;;;;;;21.75;3.35;;;;;;;;;;5060875;28;20056;-72
2022/01/30 02:15:47;;;;;;;21.25;3.25;;;;;;;;;;5045850;28;20040;-72
2022/01/30 02:26:20;;;;;;;26.20;3.47;;;;;;;;;;5046574;28;20052;-72
2022/01/30 02:28:47;;;;;;;22.92;3.90;;;;;;;;;;5054376;28;20180;-72
2022/01/30 02:31:19;;;;;;;20.90;4.07;;;;;;;;;;5051862;28;20428;-72
2022/01/30 02:33:45;;;;;;;20.75;3.15;;;;;;;;;;5043681;28;20048;-72
2022/01/30 02:36:12;;;;;;;27.15;3.28;;;;;;;;;;5053669;28;20060;-72
2022/01/30 02:38:38;;;;;;;24.70;2.85;;;;;;;;;;5042673;28;20505;-72
2022/01/30 02:41:05;;;;;;;13.57;2.17;;;;;;;;;;5056535;28;20140;-72
2022/01/30 02:43:37;;;;;;;17.67;2.35;;;;;;;;;;5047962;28;20053;-72
2022/01/30 02:46:12;;;;;;;18.63;3.42;;;;;;;;;;5052992;28;20127;-72
2022/01/30 02:48:53;;;;;;;27.20;2.63;;;;;;;;;;5033277;28;20719;-72
2022/01/30 02:51:22;;;;;;;16.35;2.53;;;;;;;;;;5064973;28;20044;-72
2022/01/30 02:54:02;;;;;;;19.65;2.60;;;;;;;;;;5054850;28;20050;-72
2022/01/30 02:56:29;;;;;;;17.10;2.50;;;;;;;;;;5074518;28;20048;-71
2022/01/30 02:58:55;;;;;;;15.10;2.13;;;;;;;;;;5076897;28;20051;-71
2022/01/30 03:01:22;;;;;;;20.42;2.45;;;;;;;;;;5087753;28;20054;-71
2022/01/30 03:03:48;;;;;;;21.60;2.42;;;;;;;;;;5086792;28;20055;-71
2022/01/30 03:06:15;;;;;;;20.00;3.20;;;;;;;;;;5055469;28;20052;-72
2022/01/30 03:08:41;;;;;;;19.85;2.58;;;;;;;;;;5057991;28;20067;-71
2022/01/30 03:11:07;;;;;;;15.13;2.20;;;;;;;;;;5050271;28;20067;-71
2022/01/30 03:13:34;;;;;;;20.35;3.22;;;;;;;;;;5063337;28;20051;-71
2022/01/30 03:16:03;;;;;;;16.55;3.00;;;;;;;;;;5042508;28;20052;-71
2022/01/30 03:18:31;;;;;;;18.40;2.17;;;;;;;;;;5066261;28;20060;-71
2022/01/30 03:20:58;;;;;;;21.30;2.88;;;;;;;;;;5065493;28;20449;-71
2022/01/30 03:23:24;;;;;;;26.38;2.70;;;;;;;;;;5053575;28;20056;-71
2022/01/30 03:25:56;;;;;;;18.75;2.53;;;;;;;;;;5060941;28;20055;-72
2022/01/30 03:28:23;;;;;;;20.90;2.55;;;;;;;;;;5059304;28;20048;-72
2022/01/30 03:30:53;;;;;;;17.65;2.35;;;;;;;;;;5066390;28;20080;-72
2022/01/30 03:33:20;;;;;;;17.52;2.72;;;;;;;;;;5060179;28;20053;-72
2022/01/30 03:35:46;;;;;;;22.95;3.42;;;;;;;;;;5066072;28;20072;-71
2022/01/30 03:38:14;;;;;;;13.52;2.58;;;;;;;;;;5054502;28;20049;-71
2022/01/30 03:40:40;;;;;;;28.65;2.90;;;;;;;;;;5062153;28;20573;-71
2022/01/30 03:43:06;;;;;;;19.30;2.60;;;;;;;;;;5066686;28;20075;-71
2022/01/30 03:45:33;;;;;;;18.60;2.60;;;;;;;;;;5058982;28;20052;-72
2022/01/30 03:47:59;;;;;;;16.90;2.33;;;;;;;;;;5048532;28;20045;-71
2022/01/30 03:50:26;;;;;;;12.60;2.47;;;;;;;;;;5057131;28;20048;-72
2022/01/30 03:52:54;;;;;;;17.73;2.55;;;;;;;;;;5058433;28;20044;-71
2022/01/30 03:55:21;;;;;;;19.05;2.95;;;;;;;;;;5051430;28;20055;-71
2022/01/30 03:57:47;;;;;;;19.38;2.75;;;;;;;;;;5045593;28;20057;-71
2022/01/30 04:00:14;;;;;;;22.73;2.03;;;;;;;;;;5042952;28;20516;-71
2022/01/30 04:02:40;;;;;;;16.75;2.05;;;;;;;;;;5066136;28;20057;-71
2022/01/30 04:05:08;;;;;;;14.30;2.05;;;;;;;;;;5061329;28;20075;-72
2022/01/30 04:07:34;;;;;;;18.58;2.50;;;;;;;;;;5036694;28;20412;-72
2022/01/30 04:10:01;;;;;;;16.92;2.55;;;;;;;;;;5063400;28;20372;-72
2022/01/30 04:12:31;;;;;;;23.45;3.08;;;;;;;;;;5057764;28;20056;-72
2022/01/30 04:14:57;;;;;;;18.85;2.92;;;;;;;;;;5065253;28;20470;-71
2022/01/30 04:17:24;;;;;;;21.38;2.70;;;;;;;;;;5059107;28;20140;-71
2022/01/30 04:19:50;;;;;;;19.70;2.45;;;;;;;;;;5060991;28;20414;-71
2022/01/30 04:22:17;;;;;;;23.23;2.65;;;;;;;;;;5053889;28;20122;-71
2022/01/30 04:24:43;;;;;;;26.25;3.38;;;;;;;;;;5065783;28;20072;-71
2022/01/30 04:27:09;;;;;;;11.18;1.92;;;;;;;;;;5066496;28;20053;-71
2022/01/30 04:29:36;;;;;;;20.50;2.53;;;;;;;;;;5059262;28;20507;-71
2022/01/30 04:32:03;;;;;;;16.17;1.90;;;;;;;;;;5063719;28;20080;-71
2022/01/30 04:34:30;;;;;;;21.88;2.50;;;;;;;;;;5054860;28;20443;-71
2022/01/30 04:53:22;;;;;;;21.00;2.45;;;;;;;;;;5054383;28;20457;-72
2022/01/30 04:56:35;;;;;;;18.42;2.35;;;;;;;;;;5065876;28;20060;-71
2022/01/30 04:59:12;;;;;;;24.95;2.95;;;;;;;;;;5069125;28;20477;-71
2022/01/30 05:09:25;;;;;;;17.83;2.60;;;;;;;;;;5066872;28;20052;-71
2022/01/30 05:11:53;;;;;;;21.75;2.50;;;;;;;;;;5063223;28;20044;-71
2022/01/30 05:14:24;;;;;;;20.27;2.78;;;;;;;;;;5066186;28;20067;-70
2022/01/30 05:16:51;;;;;;;23.15;3.38;;;;;;;;;;5062810;28;20055;-71
2022/01/30 05:19:17;;;;;;;23.48;2.53;;;;;;;;;;5062134;28;20144;-71
2022/01/30 05:21:44;;;;;;;17.05;3.60;;;;;;;;;;5068070;28;20064;-71
2022/01/30 05:24:10;;;;;;;21.75;2.83;;;;;;;;;;5060640;28;20421;-71
2022/01/30 05:26:40;;;;;;;25.77;2.45;;;;;;;;;;5068575;28;20059;-71
2022/01/30 05:29:06;;;;;;;18.65;2.47;;;;;;;;;;5056183;28;20177;-71
2022/01/30 05:31:33;;;;;;;18.75;2.25;;;;;;;;;;5063878;28;20079;-71
2022/01/30 05:33:59;;;;;;;17.25;2.03;;;;;;;;;;5061097;28;20063;-71
2022/01/30 05:36:25;;;;;;;21.60;2.63;;;;;;;;;;5068082;28;20053;-71
2022/01/30 05:38:52;;;;;;;22.60;2.65;;;;;;;;;;5068575;28;20075;-72
2022/01/30 05:41:18;;;;;;;18.40;3.05;;;;;;;;;;5061787;28;20044;-72
2022/01/30 05:43:49;;;;;;;24.92;2.72;;;;;;;;;;5061240;28;20515;-71
2022/01/30 05:46:27;;;;;;;20.75;2.83;;;;;;;;;;5058316;28;20109;-71
2022/01/30 05:48:54;;;;;;;22.20;2.95;;;;;;;;;;5067163;28;20052;-71
2022/01/30 05:51:20;;;;;;;14.35;2.17;;;;;;;;;;5060823;28;20462;-71
2022/01/30 05:53:47;;;;;;;15.82;2.38;;;;;;;;;;5074509;28;20055;-71
2022/01/30 05:56:13;;;;;;;18.48;2.33;;;;;;;;;;5059866;28;20048;-70
2022/01/30 05:58:40;;;;;;;15.23;2.13;;;;;;;;;;5067810;28;20052;-71
2022/01/30 06:01:06;;;;;;;19.23;2.17;;;;;;;;;;5068147;28;20055;-71
2022/01/30 06:03:32;;;;;;;16.83;2.25;;;;;;;;;;5061588;28;20056;-71
2022/01/30 06:06:00;;;;;;;16.65;2.38;;;;;;;;;;5063115;28;20080;-72
2022/01/30 06:08:40;;;;;;;18.08;2.78;;;;;;;;;;5056355;28;20052;-71
2022/01/30 06:11:06;;;;;;;22.15;2.60;;;;;;;;;;5065733;28;20048;-71
2022/01/30 06:13:33;;;;;;;21.60;2.70;;;;;;;;;;5060974;28;20420;-71
2022/01/30 06:15:59;;;;;;;19.50;2.47;;;;;;;;;;5067417;28;20058;-71
2022/01/30 06:18:26;;;;;;;22.52;3.05;;;;;;;;;;5060350;28;20059;-71
2022/01/30 06:20:53;;;;;;;17.23;2.33;;;;;;;;;;5061259;28;20059;-71
2022/01/30 06:23:22;;;;;;;20.08;2.78;;;;;;;;;;5063877;28;20132;-71
2022/01/30 06:25:49;;;;;;;17.40;2.10;;;;;;;;;;5060725;28;20058;-71
2022/01/30 06:28:15;;;;;;;22.77;3.70;;;;;;;;;;5068185;28;20420;-71
2022/01/30 06:30:42;;;;;;;22.30;3.35;;;;;;;;;;5056839;28;20048;-71
2022/01/30 06:33:08;;;;;;;23.10;3.92;;;;;;;;;;5045765;28;20045;-71
2022/01/30 06:35:34;;;;;;;23.80;2.80;;;;;;;;;;5037872;28;20040;-71
2022/01/30 06:38:01;;;;;;;26.05;3.60;;;;;;;;;;5045990;28;20056;-71
2022/01/30 06:40:28;;;;;;;26.05;3.30;;;;;;;;;;5043103;28;20048;-71
2022/01/30 06:42:54;;;;;;;24.88;3.55;;;;;;;;;;5067360;28;20059;-71
2022/01/30 06:45:20;;;;;;;20.30;3.42;;;;;;;;;;5066982;28;20059;-71
2022/01/30 06:47:47;;;;;;;24.77;2.97;;;;;;;;;;5055584;28;20071;-71
2022/01/30 06:50:14;;;;;;;24.55;3.08;;;;;;;;;;5060085;28;20059;-72
2022/01/30 06:52:40;;;;;;;27.80;3.35;;;;;;;;;;5049318;28;20058;-71
2022/01/30 06:55:07;;;;;;;21.67;3.92;;;;;;;;;;5059831;28;20045;-71
2022/01/30 06:57:34;;;;;;;25.23;3.88;;;;;;;;;;5041774;28;20063;-71
2022/01/30 07:00:00;;;;;;;26.33;3.30;;;;;;;;;;5048293;28;20049;-71
2022/01/30 07:02:27;;;;;;;28.63;3.88;;;;;;;;;;5034255;28;20060;-71
2022/01/30 07:04:54;;;;;;;25.70;2.78;;;;;;;;;;5043872;28;20049;-71
2022/01/30 07:07:20;;;;;;;21.15;2.90;;;;;;;;;;5054393;28;20654;-71
2022/01/30 07:09:47;;;;;;;35.10;3.65;;;;;;;;;;5039579;28;20059;-71
2022/01/30 07:12:13;;;;;;;23.35;3.22;;;;;;;;;;5064540;28;20055;-71
2022/01/30 07:14:40;;;;;;;21.80;3.53;;;;;;;;;;5056651;28;20064;-71
2022/01/30 07:17:07;;;;;;;31.60;3.40;;;;;;;;;;5060157;28;20064;-71
2022/01/30 07:19:33;;;;;;;29.23;3.63;;;;;;;;;;5059999;28;20417;-71
2022/01/30 07:21:59;;;;;;;27.30;3.75;;;;;;;;;;5057461;28;20045;-71
2022/01/30 07:24:25;;;;;;;20.50;3.33;;;;;;;;;;5047574;28;20085;-71
2022/01/30 07:26:52;;;;;;;25.80;3.42;;;;;;;;;;5044859;28;20051;-71
2022/01/30 07:29:18;;;;;;;20.23;2.75;;;;;;;;;;5045173;28;20494;-71
2022/01/30 07:31:45;;;;;;;27.90;3.65;;;;;;;;;;5052358;28;20055;-71
2022/01/30 07:34:11;;;;;;;33.90;4.30;;;;;;;;;;5066506;28;20095;-71
2022/01/30 07:36:37;;;;;;;24.20;3.65;;;;;;;;;;5058546;28;20492;-71
2022/01/30 07:39:06;;;;;;;30.38;3.58;;;;;;;;;;5066468;28;20059;-71
2022/01/30 07:41:33;;;;;;;24.35;3.33;;;;;;;;;;5051714;28;20052;-71
2022/01/30 07:43:59;;;;;;;28.33;4.38;;;;;;;;;;5046240;28;20516;-71
2022/01/30 07:46:26;;;;;;;27.65;3.50;;;;;;;;;;5040703;28;20044;-72
2022/01/30 07:48:52;;;;;;;28.75;3.50;;;;;;;;;;5041892;28;20074;-71
2022/01/30 07:51:18;;;;;;;21.80;3.20;;;;;;;;;;5058571;28;20044;-71
2022/01/30 07:53:45;;;;;;;40.47;3.55;;;;;;;;;;5064098;28;20055;-71
2022/01/30 07:56:12;;;;;;;25.17;3.60;;;;;;;;;;5066039;28;20052;-71
2022/01/30 07:58:38;;;;;;;26.15;3.83;;;;;;;;;;5035185;28;20500;-71
2022/01/30 08:01:05;;;;;;;23.38;5.15;;;;;;;;;;5065978;28;20127;-71
2022/01/30 08:03:32;;;;;;;27.48;3.65;;;;;;;;;;5059649;28;20056;-71
2022/01/30 08:05:58;;;;;;;38.08;4.20;;;;;;;;;;5065066;28;20048;-71
2022/01/30 08:08:24;;;;;;;20.42;3.10;;;;;;;;;;5067894;28;20052;-71
2022/01/30 08:10:51;;;;;;;31.30;3.25;;;;;;;;;;5055997;28;20041;-71
2022/01/30 08:13:17;;;;;;;26.83;3.60;;;;;;;;;;5049420;28;20063;-71
2022/01/30 08:15:45;;;;;;;28.55;4.25;;;;;;;;;;5062567;28;20044;-71
2022/01/30 08:18:11;;;;;;;24.17;3.17;;;;;;;;;;5070406;28;20048;-71
2022/01/30 08:20:37;;;;;;;27.50;3.30;;;;;;;;;;5063539;28;20040;-71
2022/01/30 08:23:10;;;;;;;26.30;3.45;;;;;;;;;;5067959;28;20676;-70
2022/01/30 08:25:37;;;;;;;22.73;3.55;;;;;;;;;;5057459;28;20045;-71
2022/01/30 08:28:03;;;;;;;24.42;4.25;;;;;;;;;;5051063;28;20485;-72
2022/01/30 08:30:29;;;;;;;23.00;3.28;;;;;;;;;;5070305;28;20051;-71
2022/01/30 08:32:58;;;;;;;28.48;4.97;;;;;;;;;;5062475;28;20059;-71
2022/01/30 08:35:25;;;;;;;24.08;4.25;;;;;;;;;;5070255;28;20660;-71
2022/01/30 08:37:51;;;;;;;22.67;3.45;;;;;;;;;;5059138;28;20056;-71
2022/01/30 08:40:18;;;;;;;22.83;3.85;;;;;;;;;;5065405;28;20148;-71
2022/01/30 08:42:45;;;;;;;26.42;4.18;;;;;;;;;;5062676;28;20168;-70
2022/01/30 08:45:13;;;;;;;19.52;3.28;;;;;;;;;;5069372;28;20045;-71
2022/01/30 08:47:40;;;;;;;21.58;3.33;;;;;;;;;;5068355;28;20058;-71
2022/01/30 08:50:06;;;;;;;20.77;2.53;;;;;;;;;;5065605;28;20103;-71
2022/01/30 08:52:33;;;;;;;21.98;3.53;;;;;;;;;;5069159;28;20051;-71
2022/01/30 08:55:00;;;;;;;21.60;3.25;;;;;;;;;;5066363;28;20085;-72
2022/01/30 08:57:26;;;;;;;32.10;3.28;;;;;;;;;;5069431;28;20055;-72
2022/01/30 08:59:54;;;;;;;24.95;4.00;;;;;;;;;;5044082;28;20049;-71
2022/01/30 09:02:20;;;;;;;28.52;3.63;;;;;;;;;;5070718;28;20486;-70
2022/01/30 09:04:47;;;;;;;22.38;3.72;;;;;;;;;;5061679;28;20080;-72
2022/01/30 09:07:13;;;;;;;25.45;4.07;;;;;;;;;;5044873;28;20282;-71
2022/01/30 09:09:39;;;;;;;30.27;3.95;;;;;;;;;;5049067;28;20058;-71
2022/01/30 09:12:06;;;;;;;23.30;3.55;;;;;;;;;;5062972;28;20036;-71
2022/01/30 09:14:32;;;;;;;23.90;3.40;;;;;;;;;;5069513;28;20409;-71
2022/01/30 09:16:59;;;;;;;25.52;3.90;;;;;;;;;;5061205;28;20049;-71
2022/01/30 09:19:37;;;;;;;26.63;3.63;;;;;;;;;;5043528;28;20056;-70
2022/01/30 09:22:03;;;;;;;25.73;4.00;;;;;;;;;;5053342;28;20589;-70
2022/01/30 09:24:29;;;;;;;28.55;3.90;;;;;;;;;;5068946;28;20048;-71
2022/01/30 09:26:56;;;;;;;28.52;3.92;;;;;;;;;;5061451;28;20052;-71
2022/01/30 09:29:22;;;;;;;24.38;4.68;;;;;;;;;;5068894;28;20044;-71
2022/01/30 09:31:57;;;;;;;28.42;4.30;;;;;;;;;;5062420;28;20060;-71
2022/01/30 09:34:24;;;;;;;33.53;4.70;;;;;;;;;;5063780;28;20045;-71
2022/01/30 09:36:50;;;;;;;32.70;4.15;;;;;;;;;;5063865;28;20548;-71
2022/01/30 09:39:16;;;;;;;30.77;5.45;;;;;;;;;;5061310;28;20053;-75
2022/01/30 09:41:43;;;;;;;28.23;3.30;;;;;;;;;;5067601;28;20056;-70
2022/01/30 09:44:10;;;;;;;21.35;4.13;;;;;;;;;;5061484;28;20063;-71
2022/01/30 09:46:39;;;;;;;28.35;3.90;;;;;;;;;;5069332;28;20052;-71
2022/01/30 09:49:08;;;;;;;24.08;3.90;;;;;;;;;;5053908;28;20044;-71
2022/01/30 09:51:38;;;;;;;31.48;4.57;;;;;;;;;;5067775;28;20045;-71
2022/01/30 09:54:06;;;;;;;36.50;5.15;;;;;;;;;;5073003;28;20048;-71
2022/01/30 09:56:32;;;;;;;39.67;4.88;;;;;;;;;;5064927;28;20051;-71
2022/01/30 09:58:58;;;;;;;30.95;4.05;;;;;;;;;;5068339;28;20060;-71
2022/01/30 10:01:33;;;;;;;27.10;4.13;;;;;;;;;;5056871;28;20045;-71
2022/01/30 10:04:01;;;;;;;28.60;4.65;;;;;;;;;;5062444;28;20056;-71
2022/01/30 10:06:38;;;;;;;34.03;4.82;;;;;;;;;;5061142;28;20067;-71
2022/01/30 10:09:20;;;;;;;28.33;4.00;;;;;;;;;;5065653;28;20596;-71
2022/01/30 10:11:59;;;;;;;33.60;4.35;;;;;;;;;;5059676;28;20048;-71
2022/01/30 10:14:25;;;;;;;38.75;4.57;;;;;;;;;;5068273;28;20048;-71
2022/01/30 10:17:23;;;;;;;23.80;3.78;;;;;;;;;;5054402;28;20048;-72
2022/01/30 10:20:08;;;;;;;38.13;5.22;;;;;;;;;;5067217;28;20094;-71
2022/01/30 10:22:36;;;;;;;27.67;3.95;;;;;;;;;;5060068;28;20049;-72
2022/01/30 10:25:02;;;;;;;27.48;3.72;;;;;;;;;;5067841;28;20053;-71
2022/01/30 10:27:29;;;;;;;23.70;4.72;;;;;;;;;;5068592;28;20155;-71
2022/01/30 10:30:05;;;;;;;37.80;4.45;;;;;;;;;;5055876;28;20048;-71
2022/01/30 10:32:31;;;;;;;29.90;4.53;;;;;;;;;;5065264;28;20055;-71
2022/01/30 10:35:02;;;;;;;30.27;5.20;;;;;;;;;;5060972;28;20045;-71
2022/01/30 10:37:32;;;;;;;31.15;6.88;;;;;;;;;;5067883;28;20084;-71
2022/01/30 10:40:07;;;;;;;27.90;4.72;;;;;;;;;;5059446;28;20045;-71
2022/01/30 10:42:35;;;;;;;35.50;5.55;;;;;;;;;;5063213;28;20128;-72
2022/01/30 10:45:03;;;;;;;32.40;4.78;;;;;;;;;;5056731;28;20048;-71
2022/01/30 10:47:32;;;;;;;31.77;4.88;;;;;;;;;;5049519;28;20047;-71
2022/01/30 10:49:59;;;;;;;29.65;3.88;;;;;;;;;;5059820;28;20060;-71
2022/01/30 10:52:26;;;;;;;33.75;4.90;;;;;;;;;;5086008;28;20044;-71
2022/01/30 10:55:02;;;;;;;35.28;4.30;;;;;;;;;;5082470;28;20050;-71
2022/01/30 10:57:28;;;;;;;36.72;5.32;;;;;;;;;;5071773;28;20058;-71
2022/01/30 10:59:56;;;;;;;37.90;5.82;;;;;;;;;;5086328;28;20066;-71
2022/01/30 11:02:23;;;;;;;25.98;4.00;;;;;;;;;;5081350;28;20063;-72
2022/01/30 11:05:00;;;;;;;33.70;4.15;;;;;;;;;;5086012;28;20055;-71
2022/01/30 11:07:28;;;;;;;38.90;4.97;;;;;;;;;;5059364;28;20052;-71
2022/01/30 11:10:05;;;;;;;32.85;4.65;;;;;;;;;;5059041;28;20051;-71
2022/01/30 11:12:40;;;;;;;28.13;4.18;;;;;;;;;;5048078;28;20057;-72
2022/01/30 11:15:23;;;;;;;35.95;5.03;;;;;;;;;;5058896;28;20055;-71
2022/01/30 11:17:50;;;;;;;46.38;6.15;;;;;;;;;;5057398;28;20052;-71
2022/01/30 11:20:17;;;;;;;27.02;4.65;;;;;;;;;;5065892;28;20139;-72
2022/01/30 11:22:45;;;;;;;20.40;3.40;;;;;;;;;;5063450;28;20094;-72
2022/01/30 11:25:12;;;;;;;27.95;4.75;;;;;;;;;;5047003;28;20052;-71
2022/01/30 11:27:43;;;;;;;34.70;4.38;;;;;;;;;;5055921;28;20048;-71
2022/01/30 11:30:09;;;;;;;36.92;5.95;;;;;;;;;;5056007;28;20055;-71
2022/01/30 11:32:36;;;;;;;30.20;4.55;;;;;;;;;;5066030;28;20055;-71
2022/01/30 11:35:03;;;;;;;31.33;4.57;;;;;;;;;;5055631;28;20087;-71
2022/01/30 11:37:33;;;;;;;29.25;5.10;;;;;;;;;;5054129;28;20693;-72
2022/01/30 11:40:09;;;;;;;31.05;4.75;;;;;;;;;;5048261;28;20086;-71
2022/01/30 11:42:36;;;;;;;33.08;4.07;;;;;;;;;;5046926;28;20063;-72
2022/01/30 11:45:06;;;;;;;38.65;4.85;;;;;;;;;;5047920;28;20052;-72
2022/01/30 11:47:58;;;;;;;35.15;5.88;;;;;;;;;;5052584;28;20491;-72
2022/01/30 11:50:26;;;;;;;40.85;4.57;;;;;;;;;;5041105;28;20044;-71
2022/01/30 11:52:57;;;;;;;29.58;4.82;;;;;;;;;;5038518;28;20052;-71
2022/01/30 11:55:46;;;;;;;33.78;4.78;;;;;;;;;;5056364;28;20087;-71
2022/01/30 11:58:31;;;;;;;37.90;4.90;;;;;;;;;;5040759;28;20049;-71
2022/01/30 12:00:59;;;;;;;31.25;3.65;;;;;;;;;;5048516;28;20048;-71
2022/01/30 12:03:26;;;;;;;30.00;4.38;;;;;;;;;;5054474;28;20684;-71
2022/01/30 12:05:54;;;;;;;34.60;4.22;;;;;;;;;;5053033;28;20044;-72
2022/01/30 12:08:39;;;;;;;34.03;4.37;;;;;;;;;;5071221;28;20052;-72
2022/01/30 12:11:25;;;;;;;28.85;5.03;;;;;;;;;;5060307;28;20064;-69
2022/01/30 12:13:52;;;;;;;25.95;3.75;;;;;;;;;;5054137;28;20048;-74
2022/01/30 12:16:38;;;;;;;26.05;4.07;;;;;;;;;;5061131;28;20733;-69
2022/01/30 12:19:04;;;;;;;33.35;4.35;;;;;;;;;;5055250;28;20141;-74
2022/01/30 12:21:36;;;;;;;31.83;4.53;;;;;;;;;;5053597;28;20059;-72
2022/01/30 12:24:22;;;;;;;26.42;4.00;;;;;;;;;;5052699;28;20054;-71
2022/01/30 12:26:58;;;;;;;30.48;4.65;;;;;;;;;;5049704;28;20258;-73
2022/01/30 12:29:34;;;;;;;42.47;5.55;;;;;;;;;;5052797;28;20052;-72
2022/01/30 12:32:22;;;;;;;39.97;4.88;;;;;;;;;;5033110;28;20453;-72
2022/01/30 12:34:54;;;;;;;29.20;4.10;;;;;;;;;;5033077;28;20049;-69
2022/01/30 12:37:32;;;;;;;33.38;4.78;;;;;;;;;;5033260;28;20055;-69
2022/01/30 12:39:59;;;;;;;30.02;4.35;;;;;;;;;;5035437;28;20921;-69
2022/01/30 12:42:27;;;;;;;30.98;6.10;;;;;;;;;;5035808;28;20053;-69
2022/01/30 12:45:00;;;;;;;31.20;4.78;;;;;;;;;;5036658;28;20057;-69
2022/01/30 12:47:27;;;;;;;29.52;4.68;;;;;;;;;;5032162;28;20710;-69
2022/01/30 12:49:57;;;;;;;34.80;6.15;;;;;;;;;;5035319;28;20477;-69
2022/01/30 12:55:51;;;;;;;25.13;4.05;;;;;;;;;;5024485;28;20051;-70
2022/01/30 12:58:55;;;;;;;22.20;3.50;;;;;;;;;;5029016;28;20052;-69
2022/01/30 13:01:24;;;;;;;29.00;4.50;;;;;;;;;;5030730;28;20680;-69
2022/01/30 13:04:01;;;;;;;28.20;4.60;;;;;;;;;;5039823;28;20057;-69
2022/01/30 13:06:36;;;;;;;24.83;4.57;;;;;;;;;;5042824;28;20049;-69
2022/01/30 13:09:04;;;;;;;29.90;4.38;;;;;;;;;;5041118;28;20057;-69
2022/01/30 13:11:30;;;;;;;35.83;4.43;;;;;;;;;;5043685;28;20052;-69
2022/01/30 13:14:03;;;;;;;31.85;4.50;;;;;;;;;;5044006;28;20147;-69
2022/01/30 13:16:34;;;;;;;29.60;4.10;;;;;;;;;;5046238;28;20067;-69
2022/01/30 13:19:02;;;;;;;24.95;3.55;;;;;;;;;;5031220;28;20053;-69
2022/01/30 13:21:30;;;;;;;19.05;3.72;;;;;;;;;;5042713;28;20049;-69
2022/01/30 13:23:57;;;;;;;25.50;3.97;;;;;;;;;;5043551;28;20052;-69
2022/01/30 13:26:34;;;;;;;26.23;3.42;;;;;;;;;;5041637;28;20044;-69
2022/01/30 13:29:01;;;;;;;24.58;3.83;;;;;;;;;;5030246;28;20061;-69
2022/01/30 13:31:29;;;;;;;29.55;4.82;;;;;;;;;;5040816;28;20064;-69
2022/01/30 13:34:11;;;;;;;27.45;4.35;;;;;;;;;;5039670;28;20053;-69
2022/01/30 13:36:38;;;;;;;24.60;3.70;;;;;;;;;;5028959;28;20076;-69
2022/01/30 13:39:09;;;;;;;30.60;4.72;;;;;;;;;;5039869;28;20063;-69
2022/01/30 13:41:51;;;;;;;27.73;4.68;;;;;;;;;;5038042;28;20056;-69
2022/01/30 13:44:25;;;;;;;34.23;4.70;;;;;;;;;;5030386;28;20057;-70
2022/01/30 13:47:00;;;;;;;30.17;4.13;;;;;;;;;;5035673;28;20056;-69
2022/01/30 13:49:27;;;;;;;25.42;4.72;;;;;;;;;;5038901;28;20049;-70
2022/01/30 13:52:07;;;;;;;38.17;5.05;;;;;;;;;;5029581;28;20236;-69
2022/01/30 13:54:34;;;;;;;28.20;3.95;;;;;;;;;;5039935;28;20075;-70
2022/01/30 13:57:04;;;;;;;28.63;3.47;;;;;;;;;;5032560;28;20122;-69
2022/01/30 13:59:31;;;;;;;27.17;4.45;;;;;;;;;;5037066;28;20057;-69
2022/01/30 14:01:58;;;;;;;26.60;4.82;;;;;;;;;;5028682;28;20134;-70
2022/01/30 14:04:24;;;;;;;23.02;4.05;;;;;;;;;;5041892;28;20045;-69
2022/01/30 14:06:53;;;;;;;26.40;4.72;;;;;;;;;;5028536;28;20515;-69
2022/01/30 14:09:25;;;;;;;24.42;3.60;;;;;;;;;;5040888;28;20159;-69
2022/01/30 14:12:02;;;;;;;19.77;3.95;;;;;;;;;;5045922;28;20044;-69
2022/01/30 14:14:29;;;;;;;26.70;3.92;;;;;;;;;;5034693;28;20045;-69
2022/01/30 14:17:00;;;;;;;23.52;3.90;;;;;;;;;;5039598;28;20045;-69
2022/01/30 14:19:28;;;;;;;28.02;4.18;;;;;;;;;;5040379;28;20048;-69
2022/01/30 14:21:55;;;;;;;;;;;;;;;;;;5043473;28;20167;-69
2022/01/30 14:24:23;;;;;;;28.83;3.80;;;;;;;;;;5039080;28;19925;-69
2022/01/30 14:27:09;;;;;;;24.73;4.15;;;;;;;;;;5034032;28;20059;-69
2022/01/30 14:29:36;;;;;;;28.75;4.25;;;;;;;;;;5021193;28;20086;-69
2022/01/30 14:32:08;;;;;;;20.88;3.47;;;;;;;;;;5034789;28;20052;-69
2022/01/30 14:34:34;;;;;;;25.92;4.75;;;;;;;;;;5032418;28;20049;-69
2022/01/30 14:37:03;;;;;;;26.73;3.85;;;;;;;;;;5023604;28;20048;-69
2022/01/30 14:39:29;;;;;;;;;;;;;;;;;;5043172;28;20055;-69
2022/01/30 14:41:56;;;;;;;33.85;3.75;;;;;;;;;;5030031;28;19966;-69
2022/01/30 14:44:23;;;;;;;33.03;4.38;;;;;;;;;;5039002;28;20064;-69
2022/01/30 14:46:49;;;;;;;27.95;3.80;;;;;;;;;;5033788;28;20088;-69
2022/01/30 14:49:17;;;;;;;28.40;4.78;;;;;;;;;;5044563;28;20391;-69
2022/01/30 14:51:44;;;;;;;35.42;5.05;;;;;;;;;;5060605;28;20544;-69
2022/01/30 14:54:10;;;;;;;23.63;3.92;;;;;;;;;;5038776;28;20079;-69
2022/01/30 14:56:36;;;;;;;28.08;4.70;;;;;;;;;;5034979;28;20045;-69
2022/01/30 14:59:03;;;;;;;37.03;5.63;;;;;;;;;;5031642;28;20059;-69
2022/01/30 15:01:29;;;;;;;32.78;5.05;;;;;;;;;;5042236;28;20049;-69
2022/01/30 15:03:56;;;;;;;40.28;7.18;;;;;;;;;;5033856;28;20060;-69
2022/01/30 15:06:22;;;;;;;30.88;4.78;;;;;;;;;;5039909;28;20162;-69
2022/01/30 15:08:48;;;;;;;30.40;5.68;;;;;;;;;;5035464;28;20052;-69
2022/01/30 15:11:15;;;;;;;28.52;4.75;;;;;;;;;;5026048;28;20053;-69
2022/01/30 15:13:46;;;;;;;32.70;5.07;;;;;;;;;;5039479;28;20124;-69
2022/01/30 15:16:20;;;;;;;28.85;4.00;;;;;;;;;;5030892;28;20057;-69
2022/01/30 15:18:46;;;;;;;30.10;5.78;;;;;;;;;;5038372;28;20052;-69
2022/01/30 15:21:13;;;;;;;29.67;4.72;;;;;;;;;;5032734;28;20049;-69
2022/01/30 15:23:40;;;;;;;34.20;4.32;;;;;;;;;;5019647;28;20056;-69
2022/01/30 15:26:06;;;;;;;33.90;4.78;;;;;;;;;;5038978;28;20051;-69
2022/01/30 15:28:33;;;;;;;29.63;4.03;;;;;;;;;;5031720;28;20045;-69
2022/01/30 15:31:00;;;;;;;26.90;4.30;;;;;;;;;;5039261;28;20063;-69